createdAt,value
2023-05-19T00:01:25.926Z,72.70
2023-05-19T00:05:08.360Z,73.10
2023-05-19T00:08:51.102Z,73.50
2023-05-19T00:12:33.162Z,73.50
2023-05-19T00:16:15.568Z,73.70
2023-05-19T00:19:57.944Z,74.00
2023-05-19T00:23:39.830Z,74.40
2023-05-19T00:27:21.724Z,74.60
2023-05-19T00:31:05.107Z,74.80
2023-05-19T00:34:48.469Z,75.20
2023-05-19T00:38:35.383Z,75.20
2023-05-19T00:42:17.245Z,75.20
2023-05-19T00:45:59.078Z,72.50
2023-05-19T00:49:41.059Z,75.20
2023-05-19T00:53:24.575Z,75.50
2023-05-19T00:57:06.773Z,76.00
2023-05-19T01:00:49.677Z,75.90
2023-05-19T01:04:34.886Z,76.40
2023-05-19T01:08:17.179Z,76.60
2023-05-19T01:12:00.150Z,76.60
2023-05-19T01:16:12.771Z,76.90
2023-05-19T01:20:06.634Z,76.30
2023-05-19T01:24:05.403Z,77.40
2023-05-19T01:28:16.085Z,77.10
2023-05-19T01:32:01.114Z,76.90
2023-05-19T01:35:44.593Z,77.80
2023-05-19T01:39:27.134Z,78.00
2023-05-19T01:43:12.137Z,78.30
2023-05-19T01:46:54.668Z,78.30
2023-05-19T01:50:36.600Z,78.30
2023-05-19T01:54:18.494Z,78.30
2023-05-19T01:58:37.877Z,78.20
2023-05-19T02:02:31.656Z,77.50
2023-05-19T02:06:51.368Z,77.70
2023-05-19T02:10:37.423Z,77.50
2023-05-19T02:14:35.476Z,77.90
2023-05-19T02:18:19.293Z,77.90
2023-05-19T02:22:01.209Z,78.20
2023-05-19T02:25:43.218Z,78.40
2023-05-19T02:29:25.148Z,78.50
2023-05-19T02:33:07.455Z,78.80
2023-05-19T02:36:50.038Z,78.80
2023-05-19T02:40:32.201Z,78.90
2023-05-19T02:44:14.321Z,79.10
2023-05-19T02:47:56.912Z,79.20
2023-05-19T02:51:38.842Z,79.20
2023-05-19T02:55:21.013Z,79.40
2023-05-19T02:59:02.904Z,79.60
2023-05-19T03:02:44.853Z,79.80
2023-05-19T03:06:26.852Z,79.90
2023-05-19T03:10:09.086Z,79.90
2023-05-19T03:13:50.920Z,80.10
2023-05-19T03:17:34.387Z,80.20
2023-05-19T03:21:16.472Z,80.20
2023-05-19T03:24:58.543Z,80.10
2023-05-19T03:28:40.468Z,80.20
2023-05-19T03:32:22.405Z,80.30
2023-05-19T03:36:04.648Z,80.40
2023-05-19T03:39:46.471Z,80.40
2023-05-19T03:43:28.345Z,80.60
2023-05-19T03:47:10.180Z,80.60
2023-05-19T03:50:52.122Z,80.90
2023-05-19T03:54:34.017Z,81.00
2023-05-19T03:58:16.411Z,81.00
2023-05-19T04:01:58.397Z,81.30
2023-05-19T04:05:40.467Z,81.60
2023-05-19T04:09:24.135Z,81.70
2023-05-19T04:13:06.104Z,81.60
2023-05-19T04:16:48.077Z,81.80
2023-05-19T04:20:30.121Z,82.00
2023-05-19T04:24:12.039Z,82.10
2023-05-19T04:27:57.611Z,82.20
2023-05-19T04:31:41.024Z,82.30
2023-05-19T04:35:23.118Z,82.40
2023-05-19T04:39:10.130Z,82.50
2023-05-19T04:42:52.940Z,82.60
2023-05-19T04:46:34.987Z,80.50
2023-05-19T04:50:17.085Z,82.10
2023-05-19T04:53:59.331Z,82.10
2023-05-19T04:57:41.758Z,82.40
2023-05-19T05:01:26.007Z,82.40
2023-05-19T05:05:09.452Z,82.60
2023-05-19T05:08:52.339Z,82.70
2023-05-19T05:12:35.182Z,82.70
2023-05-19T05:16:17.203Z,82.60
2023-05-19T05:19:59.395Z,82.50
2023-05-19T05:23:41.495Z,82.30
2023-05-19T05:27:23.412Z,82.00
2023-05-19T05:31:05.275Z,82.00
2023-05-19T05:34:47.231Z,81.90
2023-05-19T05:38:29.066Z,81.80
2023-05-19T05:42:12.102Z,81.80
2023-05-19T05:45:53.963Z,81.70
2023-05-19T05:49:38.165Z,81.70
2023-05-19T05:53:21.401Z,81.70
2023-05-19T05:57:04.179Z,81.70
2023-05-19T06:00:48.600Z,81.60
2023-05-19T06:04:31.143Z,81.80
2023-05-19T06:08:13.180Z,81.80
2023-05-19T06:11:55.072Z,82.10
2023-05-19T06:15:36.986Z,82.10
2023-05-19T06:19:20.132Z,81.80
2023-05-19T06:23:03.080Z,81.40
2023-05-19T06:26:45.086Z,81.00
2023-05-19T06:30:26.945Z,80.60
2023-05-19T06:34:12.324Z,80.40
2023-05-19T06:37:55.789Z,80.20
2023-05-19T06:41:37.653Z,80.50
2023-05-19T06:45:21.983Z,80.00
2023-05-19T06:49:07.043Z,79.40
2023-05-19T06:52:48.897Z,77.70
2023-05-19T06:56:30.829Z,75.20
2023-05-19T07:00:15.824Z,74.10
2023-05-19T07:03:59.835Z,72.90
2023-05-19T07:07:41.896Z,70.50
2023-05-19T07:11:24.342Z,69.20
2023-05-19T07:15:06.746Z,68.10
2023-05-19T07:18:48.711Z,67.10
2023-05-19T07:22:30.530Z,66.80
2023-05-19T07:26:12.406Z,66.10
2023-05-19T07:29:54.966Z,65.70
2023-05-19T07:33:38.029Z,65.10
2023-05-19T07:37:19.889Z,64.20
2023-05-19T07:41:02.680Z,62.80
2023-05-19T07:44:44.631Z,61.90
2023-05-19T07:48:26.604Z,61.50
2023-05-19T07:52:08.569Z,61.30
2023-05-19T07:55:50.435Z,62.50
2023-05-19T07:59:32.352Z,62.30
2023-05-19T08:03:17.901Z,61.60
2023-05-19T08:07:00.037Z,60.80
2023-05-19T08:10:41.929Z,59.30
2023-05-19T08:14:23.931Z,57.60
2023-05-19T08:18:05.963Z,57.00
2023-05-19T08:21:48.376Z,56.10
2023-05-19T08:25:30.241Z,55.00
2023-05-19T08:29:12.225Z,53.80
2023-05-19T08:32:54.083Z,53.80
2023-05-19T08:36:35.903Z,53.80
2023-05-19T08:40:18.580Z,53.10
2023-05-19T08:44:00.582Z,53.00
2023-05-19T08:47:43.038Z,53.10
2023-05-19T08:51:50.585Z,53.60
2023-05-19T08:55:38.754Z,53.50
2023-05-19T08:59:22.665Z,54.00
2023-05-19T09:03:17.495Z,53.90
2023-05-19T09:07:04.884Z,53.80
2023-05-19T09:10:46.797Z,54.20
2023-05-19T09:14:29.389Z,54.00
2023-05-19T09:18:17.532Z,54.30
2023-05-19T09:22:03.632Z,54.20
2023-05-19T09:25:53.054Z,53.70
2023-05-19T09:29:34.939Z,53.60
2023-05-19T09:33:20.272Z,52.80
2023-05-19T09:37:02.231Z,53.10
2023-05-19T09:40:44.218Z,51.90
2023-05-19T09:44:30.575Z,51.10
2023-05-19T09:48:14.130Z,49.50
2023-05-19T09:51:56.827Z,48.40
2023-05-19T09:55:38.763Z,47.40
2023-05-19T09:59:25.158Z,46.40
2023-05-19T10:03:07.809Z,46.40
2023-05-19T10:06:56.007Z,44.20
2023-05-19T10:10:39.121Z,44.10
2023-05-19T10:14:28.611Z,42.60
2023-05-19T10:18:11.131Z,42.20
2023-05-19T10:21:53.543Z,41.40
2023-05-19T10:25:37.477Z,40.60
2023-05-19T10:29:25.613Z,40.50
2023-05-19T10:33:12.230Z,40.40
2023-05-19T10:37:10.628Z,39.50
2023-05-19T10:41:27.457Z,40.50
2023-05-19T10:45:19.967Z,42.90
2023-05-19T10:49:01.802Z,40.50
2023-05-19T10:52:44.647Z,40.90
2023-05-19T10:56:33.884Z,40.90
2023-05-19T11:00:38.974Z,41.30
2023-05-19T11:04:51.845Z,43.70
2023-05-19T11:08:35.080Z,43.50
2023-05-19T11:12:25.041Z,41.40
2023-05-19T11:16:09.082Z,40.50
2023-05-19T11:19:59.424Z,38.70
2023-05-19T11:23:42.074Z,40.20
2023-05-19T11:27:28.808Z,39.30
2023-05-19T11:31:11.499Z,38.90
2023-05-19T11:34:55.033Z,37.40
2023-05-19T11:38:37.450Z,37.20
2023-05-19T11:42:19.767Z,37.30
2023-05-19T11:46:01.687Z,36.40
2023-05-19T11:49:44.925Z,37.10
2023-05-19T11:53:33.259Z,37.60
2023-05-19T11:57:16.716Z,38.40
2023-05-19T12:01:04.294Z,38.70
2023-05-19T12:04:47.280Z,38.40
2023-05-19T12:08:29.821Z,38.50
2023-05-19T12:12:17.158Z,38.00
2023-05-19T12:16:04.237Z,38.90
2023-05-19T12:19:48.439Z,39.00
2023-05-19T12:23:30.980Z,38.80
2023-05-19T12:27:26.508Z,39.90
2023-05-19T12:31:08.608Z,41.00
2023-05-19T12:34:51.206Z,41.00
2023-05-19T12:38:33.228Z,41.50
2023-05-19T12:42:16.620Z,42.70
2023-05-19T12:45:58.491Z,42.00
2023-05-19T12:49:56.901Z,41.70
2023-05-19T12:53:38.848Z,41.10
2023-05-19T12:57:21.585Z,40.40
2023-05-19T13:01:04.127Z,41.20
2023-05-19T13:04:46.123Z,41.10
2023-05-19T13:08:27.971Z,42.10
2023-05-19T13:12:09.897Z,43.20
2023-05-19T13:15:51.835Z,43.20
2023-05-19T13:19:34.167Z,44.30
2023-05-19T13:23:16.493Z,44.30
2023-05-19T13:26:58.518Z,44.00
2023-05-19T13:30:41.832Z,44.50
2023-05-19T13:34:23.947Z,44.50
2023-05-19T13:38:08.012Z,45.90
2023-05-19T13:41:50.532Z,46.60
2023-05-19T13:45:32.451Z,47.80
2023-05-19T13:49:14.325Z,48.80
2023-05-19T13:52:56.408Z,49.70
2023-05-19T13:56:38.754Z,49.50
2023-05-19T14:00:21.413Z,49.40
2023-05-19T14:04:03.470Z,48.90
2023-05-19T14:07:45.503Z,48.90
2023-05-19T14:11:27.381Z,47.90
2023-05-19T14:15:11.248Z,49.50
2023-05-19T14:18:53.438Z,47.90
2023-05-19T14:22:35.313Z,46.40
2023-05-19T14:26:17.205Z,47.20
2023-05-19T14:29:59.183Z,47.10
2023-05-19T14:33:41.502Z,45.50
2023-05-19T14:37:23.382Z,44.80
2023-05-19T14:41:07.911Z,43.90
2023-05-19T14:44:49.782Z,44.40
2023-05-19T14:48:32.104Z,43.60
2023-05-19T14:52:13.960Z,42.80
2023-05-19T14:55:56.008Z,43.60
2023-05-19T14:59:38.207Z,43.10
2023-05-19T15:03:20.185Z,44.20
2023-05-19T15:10:50.397Z,46.10
2023-05-19T15:14:32.271Z,47.10
2023-05-19T15:18:17.809Z,47.30
2023-05-19T15:21:59.723Z,47.90
2023-05-19T15:25:41.759Z,49.90
2023-05-19T15:29:23.738Z,49.20
2023-05-19T15:33:06.002Z,49.00
2023-05-19T15:36:47.951Z,49.80
2023-05-19T15:40:29.825Z,50.30
2023-05-19T15:44:11.701Z,50.20
2023-05-19T15:47:53.819Z,48.20
2023-05-19T15:51:35.880Z,47.50
2023-05-19T15:55:17.872Z,47.70
2023-05-19T15:58:59.801Z,47.80
2023-05-19T16:02:41.833Z,49.00
2023-05-19T16:06:24.691Z,50.50
2023-05-19T16:10:07.332Z,50.20
2023-05-19T16:13:49.286Z,50.00
2023-05-19T16:17:31.280Z,50.10
2023-05-19T16:21:13.231Z,50.40
2023-05-19T16:24:55.131Z,50.60
2023-05-19T16:28:37.121Z,51.00
2023-05-19T16:32:19.268Z,50.60
2023-05-19T16:36:01.196Z,51.10
2023-05-19T16:39:44.058Z,51.10
2023-05-19T16:43:26.337Z,50.90
2023-05-19T16:47:08.349Z,50.80
2023-05-19T16:50:50.208Z,50.90
2023-05-19T16:54:32.055Z,51.30
2023-05-19T16:58:13.965Z,51.60
2023-05-19T17:01:58.854Z,52.60
2023-05-19T17:05:41.989Z,52.50
2023-05-19T17:09:26.233Z,52.20
2023-05-19T17:13:08.203Z,52.70
2023-05-19T17:16:50.353Z,53.30
2023-05-19T17:20:32.523Z,52.80
2023-05-19T17:24:14.635Z,53.10
2023-05-19T17:27:56.504Z,53.70
2023-05-19T17:31:38.404Z,53.50
2023-05-19T17:35:20.499Z,53.40
2023-05-19T17:39:02.641Z,53.70
2023-05-19T17:42:44.477Z,53.20
2023-05-19T17:46:26.513Z,53.60
2023-05-19T17:50:09.175Z,54.10
2023-05-19T17:53:51.331Z,54.50
2023-05-19T17:57:35.201Z,55.10
2023-05-19T18:01:17.989Z,55.90
2023-05-19T18:05:00.297Z,56.70
2023-05-19T18:08:46.038Z,56.60
2023-05-19T18:12:27.940Z,56.90
2023-05-19T18:16:10.677Z,57.10
2023-05-19T18:19:52.671Z,57.60
2023-05-19T18:23:34.601Z,58.10
2023-05-19T18:27:16.432Z,58.40
2023-05-19T18:31:03.709Z,58.70
2023-05-19T18:34:45.804Z,58.20
2023-05-19T18:38:28.038Z,58.80
2023-05-19T18:42:10.013Z,59.30
2023-05-19T18:45:52.073Z,59.90
2023-05-19T18:49:34.023Z,60.70
2023-05-19T18:53:16.086Z,60.40
2023-05-19T18:56:58.315Z,60.30
2023-05-19T19:00:40.182Z,60.80
2023-05-19T19:04:22.579Z,61.00
2023-05-19T19:08:05.758Z,60.60
2023-05-19T19:11:47.669Z,60.10
2023-05-19T19:15:30.886Z,60.50
2023-05-19T19:19:12.775Z,60.60
2023-05-19T19:22:54.977Z,61.00
2023-05-19T19:26:38.064Z,61.60
2023-05-19T19:30:20.023Z,62.00
2023-05-19T19:34:08.028Z,62.60
2023-05-19T19:37:51.747Z,62.80
2023-05-19T19:41:33.883Z,63.10
2023-05-19T19:45:16.102Z,63.50
2023-05-19T19:49:00.399Z,63.90
2023-05-19T19:52:42.369Z,64.30
2023-05-19T19:56:25.118Z,64.50
2023-05-19T20:00:08.457Z,64.90
2023-05-19T20:03:50.554Z,65.20
2023-05-19T20:07:32.779Z,65.20
2023-05-19T20:11:15.324Z,65.50
2023-05-19T20:14:57.461Z,65.90
2023-05-19T20:18:39.687Z,66.00
2023-05-19T20:22:21.634Z,66.10
2023-05-19T20:26:12.571Z,66.40
2023-05-19T20:29:55.556Z,66.70
2023-05-19T20:33:37.472Z,67.00
2023-05-19T20:37:19.404Z,67.30
2023-05-19T20:41:02.175Z,67.50
2023-05-19T20:44:44.361Z,67.80
2023-05-19T20:48:26.338Z,68.10
2023-05-19T20:52:08.417Z,68.30
2023-05-19T20:55:50.692Z,68.40
2023-05-19T20:59:33.411Z,68.60
2023-05-19T21:03:15.942Z,69.00
2023-05-19T21:06:57.893Z,69.10
2023-05-19T21:10:39.961Z,69.30
2023-05-19T21:14:23.027Z,69.60
2023-05-19T21:18:05.184Z,69.90
2023-05-19T21:21:47.842Z,70.10
2023-05-19T21:25:31.072Z,70.20
2023-05-19T21:29:12.935Z,70.50
2023-05-19T21:32:54.986Z,70.70
2023-05-19T21:36:36.969Z,71.00
2023-05-19T21:40:18.849Z,71.10
2023-05-19T21:44:00.722Z,71.10
2023-05-19T21:47:42.607Z,71.50
2023-05-19T21:51:24.492Z,71.80
2023-05-19T21:55:07.146Z,71.80
2023-05-19T21:58:48.993Z,72.10
2023-05-19T22:02:30.935Z,72.00
2023-05-19T22:06:12.918Z,72.10
2023-05-19T22:09:54.845Z,72.40
2023-05-19T22:13:41.029Z,72.60
2023-05-19T22:17:22.975Z,73.00
2023-05-19T22:21:04.996Z,72.90
2023-05-19T22:24:46.946Z,73.20
2023-05-19T22:28:28.761Z,73.50
2023-05-19T22:32:12.143Z,74.00
2023-05-19T22:35:54.233Z,74.10
2023-05-19T22:39:36.640Z,74.10
2023-05-19T22:43:18.528Z,74.40
2023-05-19T22:47:00.386Z,74.80
2023-05-19T22:50:42.257Z,75.20
2023-05-19T22:54:24.168Z,75.40
2023-05-19T22:58:06.725Z,76.20
2023-05-19T23:01:48.673Z,75.70
2023-05-19T23:05:30.602Z,75.90
2023-05-19T23:09:12.774Z,76.00
2023-05-19T23:12:54.872Z,76.20
2023-05-19T23:16:36.780Z,76.50
2023-05-19T23:20:18.740Z,76.80
2023-05-19T23:24:00.709Z,77.10
2023-05-19T23:27:42.574Z,77.60
2023-05-19T23:31:24.542Z,77.90
2023-05-19T23:35:15.696Z,78.10
2023-05-19T23:38:57.572Z,78.20
2023-05-19T23:42:39.656Z,78.60
2023-05-19T23:46:21.624Z,78.80
2023-05-19T23:50:03.688Z,79.10
2023-05-19T23:53:45.647Z,79.50
2023-05-19T23:57:27.515Z,79.50
